createdAt,value
2022-08-22T00:03:03.564Z,22.91
2022-08-22T00:27:51.970Z,18.58
2022-08-22T00:30:19.319Z,18.56
2022-08-22T00:32:53.298Z,18.53
2022-08-22T00:35:26.719Z,18.47
2022-08-22T00:38:16.385Z,18.33
2022-08-22T00:57:47.234Z,18.07
2022-08-22T01:16:56.060Z,18.41
2022-08-22T01:22:39.136Z,17.95
2022-08-22T01:25:45.504Z,17.88
2022-08-22T01:28:53.353Z,17.83
2022-08-22T01:47:53.723Z,17.55
2022-08-22T01:50:45.716Z,17.44
2022-08-22T01:56:12.956Z,17.40
2022-08-22T01:58:53.786Z,17.44
2022-08-22T02:04:20.101Z,17.85
2022-08-22T02:07:31.747Z,17.48
2022-08-22T02:15:47.499Z,17.34
2022-08-22T02:18:23.179Z,17.36
2022-08-22T02:21:06.422Z,17.30
2022-08-22T02:31:41.147Z,17.13
2022-08-22T02:34:24.883Z,17.08
2022-08-22T02:37:07.581Z,17.05
2022-08-22T02:42:38.026Z,16.90
2022-08-22T02:48:15.089Z,16.90
2022-08-22T02:50:59.015Z,16.86
2022-08-22T02:53:44.494Z,16.77
2022-08-22T02:56:18.687Z,16.78
2022-08-22T02:59:10.102Z,16.74
2022-08-22T03:01:42.005Z,16.72
2022-08-22T03:07:32.062Z,16.56
2022-08-22T03:23:13.435Z,16.51
2022-08-22T03:25:51.350Z,16.46
2022-08-22T03:28:26.873Z,16.44
2022-08-22T03:31:12.033Z,16.32
2022-08-22T03:33:38.678Z,16.35
2022-08-22T04:14:07.110Z,15.83
2022-08-22T04:17:14.153Z,15.77
2022-08-22T04:27:53.271Z,15.72
2022-08-22T04:35:43.011Z,15.88
2022-08-22T04:41:04.371Z,15.69
2022-08-22T04:43:42.463Z,15.62
2022-08-22T04:51:32.109Z,15.59
2022-08-22T04:54:16.878Z,15.59
2022-08-22T04:57:08.345Z,15.58
2022-08-22T04:59:36.051Z,15.66
2022-08-22T05:02:08.173Z,15.70
2022-08-22T05:04:46.506Z,15.65
2022-08-22T05:07:19.785Z,15.68
2022-08-22T05:09:53.817Z,15.67
2022-08-22T05:12:31.097Z,15.68
2022-08-22T05:15:05.873Z,15.67
2022-08-22T05:17:38.707Z,15.66
2022-08-22T05:20:12.412Z,15.64
2022-08-22T05:22:45.763Z,15.62
2022-08-22T05:25:18.824Z,15.61
2022-08-22T05:27:51.262Z,15.60
2022-08-22T05:30:28.159Z,15.58
2022-08-22T05:33:32.807Z,15.50
2022-08-22T05:36:07.108Z,15.53
2022-08-22T05:38:41.342Z,15.51
2022-08-22T05:41:12.105Z,15.49
2022-08-22T05:43:43.381Z,15.47
2022-08-22T05:46:19.723Z,15.44
2022-08-22T05:48:57.393Z,15.46
2022-08-22T05:51:35.746Z,15.47
2022-08-22T05:54:14.486Z,15.50
2022-08-22T05:56:47.567Z,15.55
2022-08-22T05:59:23.859Z,15.56
2022-08-22T06:02:16.855Z,15.50
2022-08-22T06:05:03.323Z,15.52
2022-08-22T06:10:17.688Z,15.65
2022-08-22T06:12:55.714Z,15.69
2022-08-22T06:15:33.492Z,15.76
2022-08-22T06:18:05.504Z,15.82
2022-08-22T06:20:39.740Z,15.87
2022-08-22T06:23:08.447Z,15.91
2022-08-22T06:25:38.969Z,15.99
2022-08-22T06:28:10.004Z,16.05
2022-08-22T06:30:39.613Z,16.12
2022-08-22T06:33:12.856Z,16.18
2022-08-22T06:36:04.153Z,16.26
2022-08-22T06:38:34.867Z,16.32
2022-08-22T06:41:06.936Z,16.40
2022-08-22T06:43:39.639Z,16.51
2022-08-22T06:46:07.505Z,16.65
2022-08-22T06:48:35.716Z,17.14
2022-08-22T06:51:06.407Z,17.90
2022-08-22T06:53:48.257Z,18.73
2022-08-22T06:56:22.850Z,19.08
2022-08-22T06:58:54.220Z,19.49
2022-08-22T07:01:26.314Z,20.14
2022-08-22T07:03:58.548Z,20.67
2022-08-22T07:06:50.259Z,20.99
2022-08-22T07:09:24.712Z,21.43
2022-08-22T07:11:53.455Z,21.99
2022-08-22T07:14:28.690Z,22.58
2022-08-22T07:17:00.660Z,23.10
2022-08-22T07:22:14.928Z,24.09
2022-08-22T07:24:51.628Z,24.55
2022-08-22T07:30:27.660Z,25.44
2022-08-22T07:33:25.952Z,25.93
2022-08-22T07:35:59.113Z,26.45
2022-08-22T07:38:42.958Z,26.86
2022-08-22T07:44:03.349Z,27.22
2022-08-22T07:46:37.137Z,27.14
2022-08-22T07:49:22.311Z,26.80
2022-08-22T07:51:54.558Z,26.46
2022-08-22T07:54:27.759Z,26.06
2022-08-22T07:59:33.309Z,25.71
2022-08-22T08:02:02.113Z,25.46
2022-08-22T08:04:36.871Z,25.15
2022-08-22T08:07:08.602Z,24.85
2022-08-22T08:09:41.163Z,25.22
2022-08-22T08:12:11.117Z,25.84
2022-08-22T08:14:42.064Z,26.28
2022-08-22T08:17:22.022Z,26.71
2022-08-22T08:19:50.923Z,27.17
2022-08-22T08:22:25.674Z,27.42
2022-08-22T08:24:56.174Z,27.40
2022-08-22T08:27:50.271Z,27.09
2022-08-22T08:30:22.114Z,26.81
2022-08-22T08:32:59.517Z,26.73
2022-08-22T08:36:02.296Z,26.68
2022-08-22T08:38:39.917Z,26.52
2022-08-22T08:46:55.124Z,27.04
2022-08-22T08:52:42.264Z,27.64
2022-08-22T09:00:30.392Z,27.50
2022-08-22T09:08:42.263Z,27.03
2022-08-22T09:11:48.934Z,26.89
2022-08-22T09:56:15.531Z,28.88
2022-08-22T10:06:51.515Z,28.93
2022-08-22T10:09:31.548Z,29.24
2022-08-22T10:12:24.811Z,29.47
2022-08-22T10:17:34.122Z,29.45
2022-08-22T10:20:23.191Z,29.36
2022-08-22T10:25:42.148Z,29.33
2022-08-22T10:33:39.945Z,28.77
2022-08-22T10:36:11.981Z,28.77
2022-08-22T10:49:29.311Z,29.56
2022-08-22T10:52:14.776Z,29.64
2022-08-22T10:54:50.684Z,29.72
2022-08-22T11:02:39.372Z,29.94
2022-08-22T11:05:32.549Z,29.70
2022-08-22T11:13:27.954Z,29.61
2022-08-22T11:27:01.040Z,29.70
2022-08-22T11:30:07.468Z,29.78
2022-08-22T11:33:10.097Z,29.93
2022-08-22T11:35:53.802Z,29.87
2022-08-22T11:41:14.505Z,29.48
2022-08-22T11:43:57.627Z,29.46
2022-08-22T11:57:11.794Z,29.64
2022-08-22T12:02:21.501Z,29.44
2022-08-22T12:04:55.573Z,29.25
2022-08-22T12:10:13.789Z,29.30
2022-08-22T12:15:39.570Z,29.27
2022-08-22T12:32:15.084Z,28.67
2022-08-22T12:37:29.952Z,29.32
2022-08-22T12:46:13.200Z,29.33
2022-08-22T12:48:53.375Z,29.24
2022-08-22T12:54:27.977Z,29.39
2022-08-22T12:57:28.341Z,29.35
2022-08-22T13:00:09.778Z,29.35
2022-08-22T13:02:39.801Z,29.37
2022-08-22T13:05:19.879Z,29.33
2022-08-22T13:07:54.555Z,29.32
2022-08-22T13:10:51.244Z,29.20
2022-08-22T13:24:16.847Z,28.85
2022-08-22T13:26:56.373Z,28.84
2022-08-22T13:29:39.594Z,28.79
2022-08-22T13:32:20.809Z,28.66
2022-08-22T13:34:55.682Z,28.63
2022-08-22T13:37:28.976Z,28.63
2022-08-22T13:40:01.856Z,28.52
2022-08-22T13:42:32.306Z,28.52
2022-08-22T13:45:04.985Z,28.56
2022-08-22T13:47:35.897Z,28.54
2022-08-22T13:50:14.842Z,28.43
2022-08-22T13:52:52.289Z,28.28
2022-08-22T13:58:04.708Z,28.07
2022-08-22T14:03:26.152Z,28.44
2022-08-22T14:06:07.172Z,28.23
2022-08-22T14:08:46.558Z,28.33
2022-08-22T14:11:29.079Z,28.19
2022-08-22T14:14:00.103Z,28.13
2022-08-22T14:19:13.533Z,27.78
2022-08-22T14:29:53.390Z,28.10
2022-08-22T14:35:02.905Z,28.09
2022-08-22T14:37:35.200Z,27.95
2022-08-22T14:40:13.400Z,27.89
2022-08-22T14:45:46.428Z,27.84
2022-08-22T14:48:31.708Z,27.77
2022-08-22T14:51:04.328Z,27.52
2022-08-22T14:53:34.157Z,27.43
2022-08-22T14:58:49.510Z,27.27
2022-08-22T15:01:21.679Z,27.29
2022-08-22T15:03:55.851Z,27.14
2022-08-22T15:06:35.361Z,27.06
2022-08-22T15:09:07.938Z,27.02
2022-08-22T15:11:36.961Z,26.93
2022-08-22T15:16:46.399Z,26.75
2022-08-22T15:22:38.999Z,26.54
2022-08-22T15:27:47.944Z,26.47
2022-08-22T15:30:20.597Z,26.43
2022-08-22T15:32:49.126Z,26.46
2022-08-22T15:35:29.916Z,26.47
2022-08-22T15:38:04.372Z,26.53
2022-08-22T15:45:50.810Z,26.63
2022-08-22T15:48:38.974Z,26.52
2022-08-22T15:51:10.530Z,26.53
2022-08-22T15:56:27.426Z,26.88
2022-08-22T16:28:36.063Z,25.50
2022-08-22T16:31:32.031Z,25.33
2022-08-22T17:00:38.709Z,25.08
2022-08-22T17:08:57.940Z,24.97
2022-08-22T17:22:58.242Z,24.87
2022-08-22T17:42:02.978Z,24.69
2022-08-22T17:55:05.574Z,24.53
2022-08-22T17:57:44.319Z,24.45
2022-08-22T18:00:30.729Z,24.34
2022-08-22T18:08:37.861Z,24.12
2022-08-22T18:11:13.440Z,24.01
2022-08-22T18:13:56.446Z,23.92
2022-08-22T18:16:46.370Z,23.82
2022-08-22T18:27:40.311Z,23.68
2022-08-22T18:53:54.255Z,23.26
2022-08-22T18:56:58.368Z,23.08
2022-08-22T19:05:16.560Z,23.38
2022-08-22T19:08:22.930Z,23.05
2022-08-22T19:16:43.258Z,22.96
2022-08-22T19:19:17.848Z,22.99
2022-08-22T19:22:24.613Z,22.88
2022-08-22T19:25:15.418Z,22.78
2022-08-22T19:27:45.539Z,22.81
2022-08-22T19:41:06.847Z,22.70
2022-08-22T19:43:37.937Z,22.62
2022-08-22T19:46:08.773Z,22.54
2022-08-22T19:48:47.923Z,22.44
2022-08-22T20:04:48.835Z,22.21
2022-08-22T20:15:32.869Z,22.58
2022-08-22T20:21:02.464Z,22.11
2022-08-22T20:23:30.818Z,21.96
2022-08-22T20:25:58.695Z,22.03
2022-08-22T20:31:10.886Z,21.99
2022-08-22T20:33:42.887Z,21.96
2022-08-22T20:36:28.854Z,21.86
2022-08-22T20:39:09.220Z,21.81
2022-08-22T20:41:49.905Z,21.79
2022-08-22T20:47:04.476Z,21.78
2022-08-22T20:49:37.750Z,21.78
2022-08-22T20:52:08.238Z,21.77
2022-08-22T20:54:38.161Z,21.76
2022-08-22T20:59:53.825Z,21.74
2022-08-22T21:05:00.600Z,21.72
2022-08-22T21:10:43.776Z,21.64
2022-08-22T21:16:14.362Z,21.70
2022-08-22T21:18:45.946Z,21.74
2022-08-22T21:23:51.399Z,21.73
2022-08-22T21:31:44.642Z,21.64
2022-08-22T21:34:16.148Z,21.64
2022-08-22T21:36:43.532Z,21.63
2022-08-22T21:39:19.561Z,21.61
2022-08-22T21:41:52.858Z,21.62
2022-08-22T21:44:38.724Z,21.53
2022-08-22T21:50:25.601Z,21.46
2022-08-22T21:55:34.404Z,21.48
2022-08-22T22:03:36.888Z,21.36
2022-08-22T22:06:06.254Z,21.36
2022-08-22T22:08:33.759Z,21.34
2022-08-22T22:11:06.049Z,21.35
2022-08-22T22:13:34.984Z,21.34
2022-08-22T22:16:01.657Z,21.34
2022-08-22T22:18:32.903Z,21.36
2022-08-22T22:21:00.001Z,21.36
2022-08-22T22:23:27.304Z,21.36
2022-08-22T22:25:56.556Z,21.36
2022-08-22T22:28:29.220Z,21.33
2022-08-22T22:30:56.128Z,21.29
2022-08-22T22:33:26.051Z,21.29
2022-08-22T22:35:55.548Z,21.29
2022-08-22T22:38:24.210Z,21.12
2022-08-22T22:40:51.447Z,21.05
2022-08-22T22:43:18.137Z,21.23
2022-08-22T22:45:44.970Z,21.24
2022-08-22T22:48:11.525Z,21.22
2022-08-22T22:50:44.266Z,21.21
2022-08-22T22:53:11.789Z,21.17
2022-08-22T22:56:00.201Z,21.13
2022-08-22T22:58:28.227Z,21.09
2022-08-22T23:00:56.088Z,21.04
2022-08-22T23:03:22.931Z,21.02
2022-08-22T23:05:49.510Z,20.99
2022-08-22T23:08:16.120Z,20.97
2022-08-22T23:10:42.740Z,20.93
2022-08-22T23:13:09.409Z,20.93
2022-08-22T23:15:37.062Z,20.91
2022-08-22T23:18:03.745Z,20.88
2022-08-22T23:20:30.364Z,20.83
2022-08-22T23:22:56.993Z,20.79
2022-08-22T23:25:23.572Z,20.76
2022-08-22T23:27:52.516Z,20.72
2022-08-22T23:30:20.117Z,20.68
2022-08-22T23:32:46.783Z,20.65
2022-08-22T23:35:13.596Z,20.63
2022-08-22T23:37:40.219Z,20.60
2022-08-22T23:40:08.668Z,20.59
2022-08-22T23:42:35.283Z,20.58
2022-08-22T23:45:01.894Z,20.55
2022-08-22T23:47:28.485Z,20.50
2022-08-22T23:49:55.068Z,20.48
2022-08-22T23:52:21.757Z,20.44
2022-08-22T23:54:48.356Z,20.41
2022-08-22T23:57:21.084Z,20.39
2022-08-22T23:59:57.675Z,20.37
